createdAt,value
2018-12-07T00:01:36.147Z,98810.57
2018-12-07T00:04:05.185Z,98813.91
2018-12-07T00:06:33.972Z,98809.10
2018-12-07T00:09:03.885Z,98801.21
2018-12-07T00:11:32.702Z,98806.46
2018-12-07T00:14:01.640Z,98798.57
2018-12-07T00:16:30.632Z,98809.42
2018-12-07T00:18:59.647Z,98813.82
2018-12-07T00:21:28.639Z,98816.75
2018-12-07T00:23:57.528Z,98810.02
2018-12-07T00:26:26.363Z,98809.22
2018-12-07T00:28:55.233Z,98799.16
2018-12-07T00:31:24.034Z,98805.61
2018-12-07T00:33:53.110Z,98808.60
2018-12-07T00:36:21.862Z,98809.73
2018-12-07T00:38:50.859Z,98810.12
2018-12-07T00:41:19.644Z,98814.34
2018-12-07T00:43:48.559Z,98811.51
2018-12-07T00:46:17.416Z,98810.22
2018-12-07T00:48:46.464Z,98806.34
2018-12-07T00:51:15.727Z,98803.58
2018-12-07T00:53:44.848Z,98800.62
2018-12-07T00:56:14.059Z,98804.80
2018-12-07T00:58:42.952Z,98807.35
2018-12-07T01:01:12.141Z,98803.45
2018-12-07T01:03:41.226Z,98801.05
2018-12-07T01:06:10.566Z,98797.81
2018-12-07T01:08:39.767Z,98789.61
2018-12-07T01:11:08.753Z,98782.72
2018-12-07T01:13:37.927Z,98789.88
2018-12-07T01:16:07.207Z,98784.09
2018-12-07T01:18:36.281Z,98783.34
2018-12-07T01:21:05.209Z,98779.51
2018-12-07T01:23:34.143Z,98771.78
2018-12-07T01:26:03.285Z,98780.25
2018-12-07T01:28:32.096Z,98776.30
2018-12-07T01:31:01.537Z,98780.56
2018-12-07T01:33:30.804Z,98773.95
2018-12-07T01:35:59.751Z,98778.39
2018-12-07T01:38:28.854Z,98771.38
2018-12-07T01:40:58.183Z,98771.61
2018-12-07T01:43:27.262Z,98767.30
2018-12-07T01:45:56.451Z,98765.50
2018-12-07T01:48:25.371Z,98765.17
2018-12-07T01:50:54.600Z,98766.53
2018-12-07T01:53:23.707Z,98764.63
2018-12-07T01:55:52.683Z,98755.47
2018-12-07T01:58:21.784Z,98751.09
2018-12-07T02:00:50.814Z,98748.78
2018-12-07T02:03:20.058Z,98752.22
2018-12-07T02:05:49.207Z,98748.94
2018-12-07T02:08:18.392Z,98753.38
2018-12-07T02:10:47.468Z,98745.50
2018-12-07T02:13:16.760Z,98749.45
2018-12-07T02:15:46.108Z,98748.47
2018-12-07T02:18:15.198Z,98751.45
2018-12-07T02:20:43.952Z,98757.98
2018-12-07T02:23:13.222Z,98755.38
2018-12-07T02:25:42.375Z,98755.56
2018-12-07T02:28:11.619Z,98758.44
2018-12-07T02:30:40.765Z,98751.73
2018-12-07T02:33:09.860Z,98752.07
2018-12-07T02:35:39.042Z,98754.09
2018-12-07T02:38:08.364Z,98750.45
2018-12-07T02:40:37.608Z,98744.71
2018-12-07T02:43:06.826Z,98737.77
2018-12-07T02:45:35.955Z,98739.50
2018-12-07T02:48:04.864Z,98734.23
2018-12-07T02:50:34.115Z,98729.27
2018-12-07T02:53:03.214Z,98726.78
2018-12-07T02:55:32.383Z,98723.66
2018-12-07T02:58:01.535Z,98717.44
2018-12-07T03:00:30.695Z,98723.31
2018-12-07T03:02:59.768Z,98734.55
2018-12-07T03:05:28.624Z,98736.44
2018-12-07T03:07:57.775Z,98736.37
2018-12-07T03:10:26.904Z,98730.11
2018-12-07T03:12:55.809Z,98731.77
2018-12-07T03:15:25.027Z,98740.77
2018-12-07T03:17:54.029Z,98734.89
2018-12-07T03:20:23.320Z,98735.73
2018-12-07T03:22:52.399Z,98741.02
2018-12-07T03:25:21.627Z,98740.41
2018-12-07T03:27:50.911Z,98747.02
2018-12-07T03:30:20.156Z,98748.91
2018-12-07T03:32:49.433Z,98750.34
2018-12-07T03:35:18.726Z,98747.55
2018-12-07T03:37:47.553Z,98743.45
2018-12-07T03:40:16.484Z,98744.24
2018-12-07T03:42:45.646Z,98747.30
2018-12-07T03:45:14.742Z,98751.52
2018-12-07T03:47:43.939Z,98756.70
2018-12-07T03:50:12.795Z,98755.25
2018-12-07T03:52:41.991Z,98760.67
2018-12-07T03:55:11.142Z,98765.62
2018-12-07T03:57:40.328Z,98771.03
2018-12-07T04:00:09.773Z,98771.16
2018-12-07T04:02:39.028Z,98776.22
2018-12-07T04:05:08.180Z,98768.34
2018-12-07T04:07:37.377Z,98775.98
2018-12-07T04:10:06.676Z,98779.68
2018-12-07T04:12:35.773Z,98789.04
2018-12-07T04:15:05.374Z,98788.95
2018-12-07T04:17:34.381Z,98785.82
2018-12-07T04:20:03.764Z,98781.97
2018-12-07T04:22:32.764Z,98779.39
2018-12-07T04:25:01.728Z,98777.38
2018-12-07T04:27:30.663Z,98781.04
2018-12-07T04:30:10.482Z,98769.03
2018-12-07T04:32:39.538Z,98765.25
2018-12-07T04:35:08.380Z,98769.34
2018-12-07T04:37:37.268Z,98770.12
2018-12-07T04:40:06.332Z,98779.35
2018-12-07T04:42:35.275Z,98776.97
2018-12-07T04:45:04.520Z,98777.38
2018-12-07T04:47:33.418Z,98776.53
2018-12-07T04:50:03.281Z,98772.59
2018-12-07T04:52:32.243Z,98770.47
2018-12-07T04:55:01.160Z,98777.33
2018-12-07T04:57:30.228Z,98782.03
2018-12-07T04:59:59.108Z,98777.82
2018-12-07T05:02:27.948Z,98774.42
2018-12-07T05:04:56.820Z,98777.15
2018-12-07T05:07:25.696Z,98778.43
2018-12-07T05:09:54.658Z,98780.69
2018-12-07T05:12:23.549Z,98759.12
2018-12-07T05:14:52.396Z,98755.09
2018-12-07T05:17:21.657Z,98762.41
2018-12-07T05:19:50.728Z,98770.81
2018-12-07T05:22:19.909Z,98773.37
2018-12-07T05:24:49.126Z,98775.69
2018-12-07T05:27:18.370Z,98775.39
2018-12-07T05:29:47.480Z,98773.83
2018-12-07T05:32:16.678Z,98780.25
2018-12-07T05:34:45.728Z,98795.75
2018-12-07T05:37:14.751Z,98800.58
2018-12-07T05:39:43.610Z,98813.30
2018-12-07T05:42:12.478Z,98816.88
2018-12-07T05:44:41.803Z,98810.67
2018-12-07T05:47:10.883Z,98810.58
2018-12-07T05:49:39.771Z,98808.34
2018-12-07T05:52:08.557Z,98819.17
2018-12-07T05:54:37.664Z,98816.53
2018-12-07T05:57:06.841Z,98815.28
2018-12-07T05:59:36.119Z,98810.18
2018-12-07T06:02:05.238Z,98815.92
2018-12-07T06:04:34.123Z,98811.98
2018-12-07T06:07:03.319Z,98817.38
2018-12-07T06:09:33.056Z,98820.54
2018-12-07T06:12:02.152Z,98803.59
2018-12-07T06:14:31.369Z,98806.52
2018-12-07T06:17:00.376Z,98801.66
2018-12-07T06:19:29.253Z,98800.17
2018-12-07T06:21:58.200Z,98807.61
2018-12-07T06:24:26.986Z,98813.99
2018-12-07T06:26:55.808Z,98808.73
2018-12-07T06:29:24.781Z,98809.86
2018-12-07T06:31:53.776Z,98811.30
2018-12-07T06:34:23.064Z,98812.78
2018-12-07T06:36:52.271Z,98818.85
2018-12-07T06:39:21.164Z,98820.47
2018-12-07T06:41:50.509Z,98825.57
2018-12-07T06:44:19.265Z,98821.64
2018-12-07T06:46:48.188Z,98819.95
2018-12-07T06:49:17.132Z,98820.28
2018-12-07T06:51:46.160Z,98815.06
2018-12-07T06:54:15.014Z,98814.00
2018-12-07T06:56:43.954Z,98829.63
2018-12-07T06:59:12.818Z,98821.04
2018-12-07T07:01:42.080Z,98820.95
2018-12-07T07:04:10.987Z,98824.41
2018-12-07T07:06:40.138Z,98818.06
2018-12-07T07:09:09.618Z,98823.45
2018-12-07T07:11:38.925Z,98810.64
2018-12-07T07:14:07.980Z,98828.14
2018-12-07T07:16:37.162Z,98815.84
2018-12-07T07:19:06.405Z,98811.16
2018-12-07T07:21:35.552Z,98806.61
2018-12-07T07:24:04.792Z,98808.52
2018-12-07T07:26:34.038Z,98812.33
2018-12-07T07:29:03.190Z,98814.25
2018-12-07T07:31:32.096Z,98816.03
2018-12-07T07:34:01.143Z,98816.76
2018-12-07T07:36:30.032Z,98814.39
2018-12-07T07:38:58.922Z,98810.62
2018-12-07T07:41:27.892Z,98805.61
2018-12-07T07:43:56.823Z,98797.45
2018-12-07T07:46:25.795Z,98798.98
2018-12-07T07:48:54.686Z,98796.28
2018-12-07T07:51:23.677Z,98791.17
2018-12-07T07:53:52.497Z,98782.25
2018-12-07T07:56:21.562Z,98774.90
2018-12-07T07:58:50.484Z,98765.84
2018-12-07T08:01:19.401Z,98764.00
2018-12-07T08:03:48.269Z,98764.81
2018-12-07T08:06:17.223Z,98773.23
2018-12-07T08:08:46.195Z,98778.27
2018-12-07T08:11:15.083Z,98785.85
2018-12-07T08:13:43.890Z,98790.42
2018-12-07T08:16:12.987Z,98789.31
2018-12-07T08:18:41.899Z,98783.46
2018-12-07T08:21:10.867Z,98762.97
2018-12-07T08:23:39.724Z,98746.34
2018-12-07T08:26:08.749Z,98745.66
2018-12-07T08:28:37.585Z,98745.77
2018-12-07T08:31:06.531Z,98760.71
2018-12-07T08:33:35.522Z,98755.38
2018-12-07T08:36:04.456Z,98734.38
2018-12-07T08:38:33.404Z,98718.35
2018-12-07T08:41:02.319Z,98706.03
2018-12-07T08:43:31.182Z,98694.81
2018-12-07T08:46:00.103Z,98696.66
2018-12-07T08:48:29.066Z,98676.48
2018-12-07T08:50:57.984Z,98670.38
2018-12-07T08:53:26.862Z,98669.17
2018-12-07T08:55:55.722Z,98669.33
2018-12-07T08:58:24.520Z,98677.52
2018-12-07T09:00:53.411Z,98667.06
2018-12-07T09:03:22.239Z,98661.47
2018-12-07T09:05:51.232Z,98653.44
2018-12-07T09:08:20.132Z,98654.76
2018-12-07T09:10:49.116Z,98652.50
2018-12-07T09:13:17.892Z,98645.91
2018-12-07T09:15:46.710Z,98636.12
2018-12-07T09:18:15.515Z,98640.15
2018-12-07T09:20:44.368Z,98641.66
2018-12-07T09:23:13.318Z,98629.01
2018-12-07T09:25:42.206Z,98632.26
2018-12-07T09:28:11.069Z,98632.64
2018-12-07T09:30:41.226Z,98627.26
2018-12-07T09:33:10.317Z,98620.20
2018-12-07T09:35:39.407Z,98618.42
2018-12-07T09:38:13.185Z,98606.67
2018-12-07T09:40:39.234Z,98604.11
2018-12-07T09:43:08.082Z,98604.19
2018-12-07T09:45:36.860Z,98600.03
2018-12-07T09:48:05.719Z,98598.47
2018-12-07T09:50:34.689Z,98595.79
2018-12-07T09:53:03.552Z,98601.38
2018-12-07T09:55:32.379Z,98593.16
2018-12-07T09:58:01.200Z,98586.96
2018-12-07T10:00:29.981Z,98583.94
2018-12-07T10:02:58.784Z,98579.03
2018-12-07T10:05:27.721Z,98580.77
2018-12-07T10:07:56.614Z,98581.80
2018-12-07T10:10:25.579Z,98577.13
2018-12-07T10:12:54.494Z,98576.06
2018-12-07T10:15:23.387Z,98571.37
2018-12-07T10:17:52.220Z,98570.05
2018-12-07T10:20:21.259Z,98564.19
2018-12-07T10:22:50.159Z,98560.72
2018-12-07T10:25:19.117Z,98553.70
2018-12-07T10:27:48.044Z,98553.59
2018-12-07T10:30:16.851Z,98548.23
2018-12-07T10:32:45.720Z,98543.93
2018-12-07T10:35:14.606Z,98538.22
2018-12-07T10:37:43.700Z,98537.09
2018-12-07T10:40:12.585Z,98529.92
2018-12-07T10:42:41.583Z,98530.78
2018-12-07T10:45:10.561Z,98525.04
2018-12-07T10:47:39.568Z,98516.61
2018-12-07T10:50:08.495Z,98505.65
2018-12-07T10:52:37.449Z,98506.37
2018-12-07T10:55:08.068Z,98496.98
2018-12-07T10:57:37.416Z,98495.02
2018-12-07T11:00:09.064Z,98492.89
2018-12-07T11:02:43.323Z,98485.33
2018-12-07T11:05:17.348Z,98483.36
2018-12-07T11:07:51.551Z,98484.87
2018-12-07T11:10:25.819Z,98478.64
2018-12-07T11:12:59.936Z,98477.08
2018-12-07T11:15:34.118Z,98472.15
2018-12-07T11:18:08.293Z,98468.30
2018-12-07T11:20:42.207Z,98470.17
2018-12-07T11:23:16.454Z,98475.02
2018-12-07T11:25:50.477Z,98473.06
2018-12-07T11:28:24.412Z,98476.09
2018-12-07T11:30:58.668Z,98464.71
2018-12-07T11:33:31.980Z,98463.70
2018-12-07T11:50:36.073Z,98446.73
2018-12-07T11:53:05.214Z,98450.72
2018-12-07T11:55:34.381Z,98451.06
2018-12-07T11:58:03.570Z,98449.42
2018-12-07T12:00:32.467Z,98442.91
2018-12-07T12:03:01.564Z,98443.50
2018-12-07T12:05:30.521Z,98448.44
2018-12-07T12:07:59.585Z,98450.71
2018-12-07T12:10:28.807Z,98448.73
2018-12-07T12:12:57.956Z,98451.28
2018-12-07T12:15:27.162Z,98447.77
2018-12-07T12:17:55.923Z,98442.72
2018-12-07T12:20:25.000Z,98440.31
2018-12-07T12:22:54.150Z,98443.90
2018-12-07T12:25:23.196Z,98441.39
2018-12-07T12:27:52.234Z,98443.56
2018-12-07T12:30:21.420Z,98443.38
2018-12-07T12:32:50.240Z,98440.36
2018-12-07T12:35:19.460Z,98432.73
2018-12-07T12:37:48.516Z,98437.38
2018-12-07T12:40:17.466Z,98437.41
2018-12-07T12:42:46.591Z,98439.97
2018-12-07T12:45:15.704Z,98443.30
2018-12-07T12:47:44.879Z,98436.89
2018-12-07T12:50:19.156Z,98439.88
2018-12-07T12:52:48.156Z,98434.78
2018-12-07T12:55:17.054Z,98431.73
2018-12-07T12:57:45.895Z,98433.37
2018-12-07T13:00:14.934Z,98438.27
2018-12-07T13:02:43.776Z,98442.98
2018-12-07T13:05:12.639Z,98448.83
2018-12-07T13:07:41.632Z,98459.35
2018-12-07T13:10:10.590Z,98450.99
2018-12-07T13:12:39.400Z,98455.97
2018-12-07T13:15:08.563Z,98446.70
2018-12-07T13:17:37.471Z,98440.13
2018-12-07T13:20:07.589Z,98442.20
2018-12-07T13:22:36.563Z,98441.23
2018-12-07T13:25:06.091Z,98437.20
2018-12-07T13:27:34.920Z,98436.36
2018-12-07T13:30:04.161Z,98431.78
2018-12-07T13:32:33.045Z,98431.33
2018-12-07T13:35:01.851Z,98429.55
2018-12-07T13:37:30.828Z,98419.44
2018-12-07T13:39:59.819Z,98423.31
2018-12-07T13:42:28.949Z,98431.76
2018-12-07T13:44:58.064Z,98433.09
2018-12-07T13:47:27.326Z,98430.53
2018-12-07T13:50:01.839Z,98433.88
2018-12-07T13:52:31.073Z,98433.38
2018-12-07T13:55:00.386Z,98427.67
2018-12-07T13:57:29.830Z,98429.88
2018-12-07T13:59:58.986Z,98432.27
2018-12-07T14:02:28.216Z,98432.67
2018-12-07T14:04:57.574Z,98439.23
2018-12-07T14:07:26.727Z,98441.89
2018-12-07T14:09:56.024Z,98445.50
2018-12-07T14:12:25.282Z,98445.97
2018-12-07T14:14:54.712Z,98448.15
2018-12-07T14:17:23.924Z,98451.67
2018-12-07T14:19:53.394Z,98447.27
2018-12-07T14:22:22.658Z,98438.70
2018-12-07T14:24:52.023Z,98442.66
2018-12-07T14:27:21.311Z,98436.11
2018-12-07T14:29:50.590Z,98434.84
2018-12-07T14:32:19.942Z,98432.67
2018-12-07T14:34:49.541Z,98414.45
2018-12-07T14:37:18.772Z,98406.62
2018-12-07T14:39:48.130Z,98398.88
2018-12-07T14:42:17.374Z,98401.89
2018-12-07T14:44:46.512Z,98399.30
2018-12-07T14:47:15.713Z,98398.87
2018-12-07T14:49:45.008Z,98406.20
2018-12-07T14:52:14.341Z,98407.53
2018-12-07T14:54:43.739Z,98417.06
2018-12-07T14:57:13.039Z,98421.00
2018-12-07T14:59:42.192Z,98420.95
2018-12-07T15:02:11.429Z,98404.95
2018-12-07T15:04:40.741Z,98404.98
2018-12-07T15:07:09.897Z,98390.71
2018-12-07T15:09:39.293Z,98390.30
2018-12-07T15:12:08.442Z,98390.75
2018-12-07T15:14:37.652Z,98381.66
2018-12-07T15:17:06.669Z,98382.09
2018-12-07T15:19:36.019Z,98400.29
2018-12-07T15:22:04.978Z,98395.95
2018-12-07T15:24:34.285Z,98393.77
2018-12-07T15:27:03.690Z,98400.29
2018-12-07T15:29:33.198Z,98408.48
2018-12-07T15:32:02.587Z,98413.66
2018-12-07T15:34:31.930Z,98420.12
2018-12-07T15:37:01.570Z,98430.02
2018-12-07T15:39:31.006Z,98438.17
2018-12-07T15:42:00.356Z,98439.00
2018-12-07T15:44:29.254Z,98440.24
2018-12-07T15:46:58.588Z,98441.94
2018-12-07T15:49:28.180Z,98443.25
2018-12-07T15:51:57.177Z,98437.53
2018-12-07T15:54:26.288Z,98430.97
2018-12-07T15:56:55.276Z,98435.25
2018-12-07T15:59:24.305Z,98427.41
2018-12-07T16:01:53.343Z,98425.61
2018-12-07T16:04:22.629Z,98424.17
2018-12-07T16:06:51.815Z,98440.07
2018-12-07T16:09:20.834Z,98434.58
2018-12-07T16:11:49.802Z,98431.94
2018-12-07T16:14:18.809Z,98430.11
2018-12-07T16:16:47.737Z,98427.35
2018-12-07T16:19:16.752Z,98418.16
2018-12-07T16:21:46.116Z,98422.03
2018-12-07T16:24:15.312Z,98425.54
2018-12-07T16:26:44.746Z,98431.63
2018-12-07T16:29:13.914Z,98434.61
2018-12-07T16:31:43.340Z,98434.92
2018-12-07T16:34:12.591Z,98431.89
2018-12-07T16:36:41.809Z,98437.92
2018-12-07T16:39:10.939Z,98436.63
2018-12-07T16:41:40.149Z,98429.80
2018-12-07T16:44:09.522Z,98437.56
2018-12-07T16:46:38.617Z,98439.34
2018-12-07T16:49:07.805Z,98429.44
2018-12-07T16:51:37.059Z,98419.55
2018-12-07T16:54:06.449Z,98422.05
2018-12-07T16:56:35.607Z,98412.11
2018-12-07T16:59:04.903Z,98408.73
2018-12-07T17:01:34.016Z,98398.95
2018-12-07T17:04:03.227Z,98386.05
2018-12-07T17:06:32.681Z,98371.78
2018-12-07T17:09:02.050Z,98363.90
2018-12-07T17:11:32.396Z,98370.42
2018-12-07T17:14:01.713Z,98370.18
2018-12-07T17:16:30.869Z,98367.12
2018-12-07T17:18:59.950Z,98366.20
2018-12-07T17:21:30.123Z,98376.66
2018-12-07T17:23:59.212Z,98380.65
2018-12-07T17:26:28.461Z,98383.45
2018-12-07T17:28:57.710Z,98391.12
2018-12-07T17:31:26.904Z,98393.36
2018-12-07T17:33:56.268Z,98392.56
2018-12-07T17:36:25.780Z,98403.21
2018-12-07T17:38:55.210Z,98403.10
2018-12-07T17:41:25.251Z,98400.41
2018-12-07T17:43:54.283Z,98403.45
2018-12-07T17:46:24.986Z,98395.24
2018-12-07T17:48:54.079Z,98391.78
2018-12-07T17:51:25.250Z,98392.67
2018-12-07T17:53:54.571Z,98393.66
2018-12-07T17:56:24.003Z,98390.08
2018-12-07T17:58:54.657Z,98385.28
2018-12-07T18:01:23.654Z,98384.01
2018-12-07T18:03:52.528Z,98384.99
2018-12-07T18:06:21.693Z,98379.82
2018-12-07T18:08:51.097Z,98369.88
2018-12-07T18:11:20.153Z,98355.58
2018-12-07T18:13:49.339Z,98368.41
2018-12-07T18:16:18.469Z,98368.80
2018-12-07T18:18:47.506Z,98364.42
2018-12-07T18:21:16.724Z,98361.31
2018-12-07T18:23:45.680Z,98361.19
2018-12-07T18:26:14.629Z,98365.39
2018-12-07T18:28:43.837Z,98372.64
2018-12-07T18:31:12.887Z,98371.74
2018-12-07T18:33:41.934Z,98375.19
2018-12-07T18:36:11.115Z,98373.39
2018-12-07T18:38:40.558Z,98375.06
2018-12-07T18:41:09.690Z,98372.80
2018-12-07T18:43:38.617Z,98373.52
2018-12-07T18:46:08.011Z,98373.98
2018-12-07T18:48:37.347Z,98378.81
2018-12-07T18:51:07.066Z,98363.72
2018-12-07T18:53:36.407Z,98361.55
2018-12-07T18:56:05.765Z,98373.19
2018-12-07T18:58:35.129Z,98365.44
2018-12-07T19:01:04.679Z,98355.94
2018-12-07T19:03:33.926Z,98359.30
2018-12-07T19:06:03.373Z,98353.66
2018-12-07T19:08:32.809Z,98346.33
2018-12-07T19:11:02.384Z,98345.38
2018-12-07T19:13:31.645Z,98329.84
2018-12-07T19:16:01.117Z,98334.59
2018-12-07T19:18:30.225Z,98342.38
2018-12-07T19:20:59.427Z,98343.62
2018-12-07T19:23:28.511Z,98338.34
2018-12-07T19:25:57.667Z,98335.27
2018-12-07T19:28:26.736Z,98336.12
2018-12-07T19:30:56.374Z,98329.23
2018-12-07T19:33:25.853Z,98337.78
2018-12-07T19:35:55.386Z,98334.81
2018-12-07T19:38:24.694Z,98330.95
2018-12-07T19:40:54.260Z,98336.87
2018-12-07T19:43:23.796Z,98330.31
2018-12-07T19:45:53.313Z,98338.01
2018-12-07T19:48:22.660Z,98331.56
2018-12-07T19:50:51.876Z,98329.36
2018-12-07T19:53:21.485Z,98319.83
2018-12-07T19:55:51.059Z,98309.05
2018-12-07T19:58:19.926Z,98308.17
2018-12-07T20:00:48.871Z,98305.55
2018-12-07T20:03:17.977Z,98299.10
2018-12-07T20:05:47.031Z,98287.16
2018-12-07T20:08:16.231Z,98289.71
2018-12-07T20:10:45.376Z,98278.48
2018-12-07T20:13:14.773Z,98281.87
2018-12-07T20:15:44.194Z,98277.98
2018-12-07T20:18:13.588Z,98275.30
2018-12-07T20:20:42.889Z,98270.90
2018-12-07T20:23:12.093Z,98279.86
2018-12-07T20:25:41.234Z,98274.16
2018-12-07T20:28:10.776Z,98278.33
2018-12-07T20:30:40.420Z,98268.86
2018-12-07T20:33:09.363Z,98261.80
2018-12-07T20:35:38.570Z,98270.85
2018-12-07T20:38:07.712Z,98263.47
2018-12-07T20:40:36.625Z,98264.33
2018-12-07T20:43:05.743Z,98256.98
2018-12-07T20:45:34.962Z,98266.52
2018-12-07T20:48:04.090Z,98263.02
2018-12-07T20:50:33.616Z,98264.64
2018-12-07T20:53:02.946Z,98278.00
2018-12-07T20:55:32.345Z,98267.61
2018-12-07T20:58:03.638Z,98266.38
2018-12-07T21:00:32.660Z,98256.45
2018-12-07T21:03:01.704Z,98257.70
2018-12-07T21:07:51.473Z,98247.27
2018-12-07T21:10:41.207Z,98260.80
2018-12-07T21:17:19.157Z,98238.19
2018-12-07T21:19:53.312Z,98240.77
2018-12-07T21:22:22.691Z,98231.25
2018-12-07T21:24:52.039Z,98227.72
2018-12-07T21:27:21.202Z,98236.34
2018-12-07T21:30:59.620Z,98243.70
2018-12-07T21:33:53.150Z,98233.71
2018-12-07T21:36:35.749Z,98232.30
2018-12-07T21:39:09.590Z,98230.48
2018-12-07T21:41:38.438Z,98236.70
2018-12-07T21:44:07.511Z,98240.20
2018-12-07T21:46:36.830Z,98239.71
2018-12-07T21:49:05.897Z,98234.06
2018-12-07T21:51:49.775Z,98240.00
2018-12-07T21:54:18.910Z,98231.55
2018-12-07T21:56:48.185Z,98227.63
2018-12-07T21:59:17.530Z,98226.92
2018-12-07T22:01:46.662Z,98226.33
2018-12-07T22:04:15.877Z,98216.45
2018-12-07T22:06:44.802Z,98193.64
2018-12-07T22:09:14.243Z,98189.23
2018-12-07T22:11:43.529Z,98200.45
2018-12-07T22:14:12.455Z,98203.81
2018-12-07T22:16:41.282Z,98202.17
2018-12-07T22:19:10.329Z,98195.27
2018-12-07T22:21:39.700Z,98194.35
2018-12-07T22:24:08.966Z,98191.75
2018-12-07T22:26:37.991Z,98191.40
2018-12-07T22:29:07.209Z,98183.20
2018-12-07T22:31:36.490Z,98175.48
2018-12-07T22:34:05.701Z,98186.64
2018-12-07T22:36:35.055Z,98179.41
2018-12-07T22:39:05.273Z,98178.53
2018-12-07T22:41:34.373Z,98172.90
2018-12-07T22:44:03.765Z,98158.19
2018-12-07T22:46:32.985Z,98162.86
2018-12-07T22:49:02.224Z,98162.56
2018-12-07T22:51:31.501Z,98148.78
2018-12-07T22:54:00.569Z,98138.37
2018-12-07T22:56:29.417Z,98139.51
2018-12-07T22:58:58.246Z,98141.34
2018-12-07T23:01:27.648Z,98147.27
2018-12-07T23:03:56.656Z,98141.56
2018-12-07T23:06:25.612Z,98145.25
2018-12-07T23:08:54.364Z,98144.50
2018-12-07T23:11:23.180Z,98135.81
2018-12-07T23:13:52.084Z,98140.44
2018-12-07T23:16:20.964Z,98141.78
2018-12-07T23:18:49.908Z,98133.22
2018-12-07T23:21:18.743Z,98131.50
2018-12-07T23:23:47.689Z,98132.32
2018-12-07T23:26:16.551Z,98140.03
2018-12-07T23:28:45.360Z,98131.42
2018-12-07T23:31:14.196Z,98119.36
2018-12-07T23:33:43.114Z,98114.22
2018-12-07T23:36:11.900Z,98107.95
2018-12-07T23:38:40.735Z,98105.53
2018-12-07T23:41:09.607Z,98115.19
2018-12-07T23:43:38.391Z,98122.02
2018-12-07T23:46:07.358Z,98116.38
2018-12-07T23:48:36.317Z,98115.08
2018-12-07T23:51:05.318Z,98127.42
2018-12-07T23:53:34.312Z,98121.38
2018-12-07T23:56:03.209Z,98124.82
2018-12-07T23:58:32.024Z,98124.34
